createdAt,value
2017-12-21T00:00:43.753Z,100.00
2017-12-21T00:02:06.837Z,100.00
2017-12-21T00:03:33.987Z,100.00
2017-12-21T00:05:01.129Z,100.00
2017-12-21T00:06:28.069Z,100.00
2017-12-21T00:07:55.185Z,100.00
2017-12-21T00:09:22.451Z,100.00
2017-12-21T00:10:49.689Z,100.00
2017-12-21T00:12:20.868Z,100.00
2017-12-21T00:13:44.169Z,100.00
2017-12-21T00:15:15.298Z,100.00
2017-12-21T00:16:38.729Z,100.00
2017-12-21T00:18:06.106Z,100.00
2017-12-21T00:19:33.253Z,100.00
2017-12-21T00:21:00.612Z,100.00
2017-12-21T00:22:31.845Z,100.00
2017-12-21T00:23:58.975Z,100.00
2017-12-21T00:25:22.003Z,100.00
2017-12-21T00:26:53.117Z,100.00
2017-12-21T00:28:16.240Z,100.00
2017-12-21T00:29:47.357Z,100.00
2017-12-21T00:31:10.718Z,100.00
2017-12-21T00:32:37.935Z,100.00
2017-12-21T00:34:09.088Z,100.00
2017-12-21T00:35:32.343Z,100.00
2017-12-21T00:36:59.740Z,100.00
2017-12-21T00:38:27.011Z,100.00
2017-12-21T00:39:54.140Z,100.00
2017-12-21T00:41:21.458Z,100.00
2017-12-21T00:42:48.786Z,100.00
2017-12-21T00:44:16.042Z,100.00
2017-12-21T00:45:43.395Z,100.00
2017-12-21T00:47:10.598Z,100.00
2017-12-21T00:48:37.780Z,100.00
2017-12-21T00:50:04.998Z,100.00
2017-12-21T00:51:32.173Z,100.00
2017-12-21T00:52:59.366Z,100.00
2017-12-21T00:54:31.549Z,100.00
2017-12-21T00:55:53.768Z,100.00
2017-12-21T00:57:21.058Z,100.00
2017-12-21T00:58:52.460Z,100.00
2017-12-21T01:00:15.610Z,100.00
2017-12-21T01:01:42.982Z,100.00
2017-12-21T01:03:10.350Z,100.00
2017-12-21T01:04:37.494Z,100.00
2017-12-21T01:06:04.692Z,100.00
2017-12-21T01:07:31.843Z,100.00
2017-12-21T01:08:59.054Z,100.00
2017-12-21T01:10:26.346Z,100.00
2017-12-21T01:11:57.633Z,100.00
2017-12-21T01:13:20.973Z,100.00
2017-12-21T01:14:48.174Z,100.00
2017-12-21T01:16:15.426Z,100.00
2017-12-21T01:17:42.728Z,100.00
2017-12-21T01:19:09.947Z,100.00
2017-12-21T01:20:37.115Z,100.00
2017-12-21T01:22:08.508Z,100.00
2017-12-21T01:23:32.015Z,100.00
2017-12-21T01:25:03.272Z,100.00
2017-12-21T01:26:26.706Z,100.00
2017-12-21T01:27:54.068Z,100.00
2017-12-21T01:29:25.505Z,100.00
2017-12-21T01:30:48.648Z,100.00
2017-12-21T01:32:16.048Z,100.00
2017-12-21T01:33:43.102Z,100.00
2017-12-21T01:35:14.385Z,100.00
2017-12-21T01:36:37.448Z,100.00
2017-12-21T01:38:08.582Z,100.00
2017-12-21T01:39:31.619Z,100.00
2017-12-21T01:40:58.958Z,100.00
2017-12-21T01:42:26.061Z,100.00
2017-12-21T01:43:53.129Z,100.00
2017-12-21T01:45:20.145Z,100.00
2017-12-21T01:46:51.247Z,100.00
2017-12-21T01:48:14.532Z,100.00
2017-12-21T01:49:45.903Z,100.00
2017-12-21T01:51:13.144Z,100.00
2017-12-21T01:52:36.241Z,100.00
2017-12-21T01:54:07.368Z,100.00
2017-12-21T01:55:34.847Z,100.00
2017-12-21T01:56:58.205Z,100.00
2017-12-21T01:58:29.552Z,100.00
2017-12-21T01:59:56.866Z,100.00
2017-12-21T02:01:20.139Z,100.00
2017-12-21T02:02:47.413Z,100.00
2017-12-21T02:04:18.711Z,100.00
2017-12-21T02:05:45.755Z,100.00
2017-12-21T02:07:12.954Z,100.00
2017-12-21T02:08:40.126Z,100.00
2017-12-21T02:10:07.276Z,100.00
2017-12-21T02:11:30.663Z,100.00
2017-12-21T02:13:02.055Z,100.00
2017-12-21T02:14:25.311Z,100.00
2017-12-21T02:15:56.730Z,100.00
2017-12-21T02:17:20.021Z,100.00
2017-12-21T02:18:47.117Z,100.00
2017-12-21T02:20:14.299Z,100.00
2017-12-21T02:21:41.629Z,100.00
2017-12-21T02:23:08.741Z,100.00
2017-12-21T02:24:35.903Z,100.00
2017-12-21T02:26:03.014Z,100.00
2017-12-21T02:27:29.970Z,100.00
2017-12-21T02:28:57.148Z,100.00
2017-12-21T02:30:24.437Z,100.00
2017-12-21T02:31:56.538Z,100.00
2017-12-21T02:33:18.936Z,100.00
2017-12-21T02:34:49.884Z,100.00
2017-12-21T02:36:13.142Z,100.00
2017-12-21T02:37:44.367Z,100.00
2017-12-21T02:39:07.471Z,100.00
2017-12-21T02:40:34.625Z,100.00
2017-12-21T02:42:01.886Z,100.00
2017-12-21T02:43:29.310Z,100.00
2017-12-21T02:44:56.049Z,100.00
2017-12-21T02:46:27.391Z,100.00
2017-12-21T02:47:50.684Z,100.00
2017-12-21T02:49:21.843Z,100.00
2017-12-21T02:50:45.239Z,100.00
2017-12-21T02:52:12.555Z,100.00
2017-12-21T02:53:43.877Z,100.00
2017-12-21T02:55:10.976Z,100.00
2017-12-21T02:56:34.278Z,100.00
2017-12-21T02:58:01.132Z,100.00
2017-12-21T02:59:28.380Z,100.00
2017-12-21T03:00:59.534Z,100.00
2017-12-21T03:02:22.719Z,100.00
2017-12-21T03:03:53.880Z,100.00
2017-12-21T03:05:17.243Z,100.00
2017-12-21T03:06:44.399Z,100.00
2017-12-21T03:08:11.501Z,100.00
2017-12-21T03:09:42.671Z,100.00
2017-12-21T03:11:09.978Z,100.00
2017-12-21T03:12:37.023Z,100.00
2017-12-21T03:14:04.245Z,100.00
2017-12-21T03:15:31.312Z,100.00
2017-12-21T03:16:54.631Z,100.00
2017-12-21T03:18:21.807Z,100.00
2017-12-21T03:19:49.024Z,100.00
2017-12-21T03:21:16.358Z,100.00
2017-12-21T03:22:43.698Z,100.00
2017-12-21T03:24:10.909Z,100.00
2017-12-21T03:25:38.054Z,100.00
2017-12-21T03:27:09.178Z,100.00
2017-12-21T03:28:36.358Z,100.00
2017-12-21T03:29:59.605Z,100.00
2017-12-21T03:31:27.006Z,100.00
2017-12-21T03:32:58.134Z,100.00
2017-12-21T03:34:21.609Z,100.00
2017-12-21T03:35:48.730Z,100.00
2017-12-21T03:37:16.002Z,100.00
2017-12-21T03:38:43.150Z,100.00
2017-12-21T03:40:10.403Z,100.00
2017-12-21T03:41:37.595Z,100.00
2017-12-21T03:43:04.606Z,100.00
2017-12-21T03:44:35.913Z,100.00
2017-12-21T03:45:59.120Z,100.00
2017-12-21T03:47:26.384Z,100.00
2017-12-21T03:48:53.617Z,100.00
2017-12-21T03:50:20.820Z,100.00
2017-12-21T03:51:52.021Z,100.00
2017-12-21T03:53:15.389Z,100.00
2017-12-21T03:54:42.661Z,100.00
2017-12-21T03:56:13.900Z,100.00
2017-12-21T03:57:40.974Z,100.00
2017-12-21T03:59:04.423Z,100.00
2017-12-21T04:00:31.756Z,100.00
2017-12-21T04:01:59.199Z,100.00
2017-12-21T04:03:26.352Z,100.00
2017-12-21T04:04:53.687Z,100.00
2017-12-21T04:06:21.011Z,100.00
2017-12-21T04:07:48.131Z,100.00
2017-12-21T04:09:15.614Z,100.00
2017-12-21T04:10:42.549Z,100.00
2017-12-21T04:12:09.855Z,100.00
2017-12-21T04:13:37.119Z,100.00
2017-12-21T04:15:04.350Z,100.00
2017-12-21T04:16:31.556Z,100.00
2017-12-21T04:17:58.841Z,100.00
2017-12-21T04:19:29.998Z,100.00
2017-12-21T04:20:53.477Z,100.00
2017-12-21T04:22:20.571Z,100.00
2017-12-21T04:23:51.676Z,100.00
2017-12-21T04:25:14.917Z,100.00
2017-12-21T04:26:42.138Z,100.00
2017-12-21T04:28:09.349Z,100.00
2017-12-21T04:29:36.676Z,100.00
2017-12-21T04:31:03.991Z,100.00
2017-12-21T04:32:31.401Z,100.00
2017-12-21T04:34:02.861Z,100.00
2017-12-21T04:35:25.754Z,100.00
2017-12-21T04:36:52.971Z,100.00
2017-12-21T04:38:20.392Z,100.00
2017-12-21T04:39:47.663Z,100.00
2017-12-21T04:41:14.908Z,100.00
2017-12-21T04:42:42.333Z,100.00
2017-12-21T04:44:09.606Z,100.00
2017-12-21T04:45:40.835Z,100.00
2017-12-21T04:47:04.056Z,100.00
2017-12-21T04:48:31.330Z,100.00
2017-12-21T04:50:02.754Z,100.00
2017-12-21T04:51:26.124Z,100.00
2017-12-21T04:52:53.503Z,100.00
2017-12-21T04:54:24.873Z,100.00
2017-12-21T04:55:48.154Z,100.00
2017-12-21T04:57:15.334Z,100.00
2017-12-21T04:58:42.806Z,100.00
2017-12-21T05:00:10.003Z,100.00
2017-12-21T05:01:37.069Z,100.00
2017-12-21T05:03:04.279Z,100.00
2017-12-21T05:04:31.546Z,100.00
2017-12-21T05:06:02.922Z,100.00
2017-12-21T05:07:30.148Z,100.00
2017-12-21T05:08:53.491Z,100.00
2017-12-21T05:10:20.916Z,100.00
2017-12-21T05:11:52.301Z,100.00
2017-12-21T05:13:19.469Z,100.00
2017-12-21T05:14:46.617Z,100.00
2017-12-21T05:16:09.745Z,100.00
2017-12-21T05:17:36.959Z,100.00
2017-12-21T05:19:04.053Z,100.00
2017-12-21T05:20:35.407Z,100.00
2017-12-21T05:21:58.727Z,100.00
2017-12-21T05:23:29.922Z,100.00
2017-12-21T05:24:57.336Z,100.00
2017-12-21T05:26:20.500Z,100.00
2017-12-21T05:27:51.847Z,100.00
2017-12-21T05:29:19.013Z,100.00
2017-12-21T05:30:42.420Z,100.00
2017-12-21T05:32:09.683Z,100.00
2017-12-21T05:33:36.751Z,100.00
2017-12-21T05:35:07.888Z,100.00
2017-12-21T05:36:31.072Z,100.00
2017-12-21T05:37:58.453Z,100.00
2017-12-21T05:39:29.628Z,100.00
2017-12-21T05:40:56.926Z,100.00
2017-12-21T05:42:27.464Z,100.00
2017-12-21T05:43:51.535Z,100.00
2017-12-21T05:45:14.673Z,100.00
2017-12-21T05:46:41.942Z,100.00
2017-12-21T05:48:09.080Z,100.00
2017-12-21T05:49:36.252Z,100.00
2017-12-21T05:51:03.609Z,100.00
2017-12-21T05:52:30.820Z,100.00
2017-12-21T05:53:58.422Z,100.00
2017-12-21T05:55:29.555Z,100.00
2017-12-21T05:56:52.778Z,100.00
2017-12-21T05:58:20.168Z,100.00
2017-12-21T05:59:47.584Z,100.00
2017-12-21T06:01:15.012Z,100.00
2017-12-21T06:02:42.195Z,100.00
2017-12-21T06:04:09.424Z,100.00
2017-12-21T06:05:36.814Z,100.00
2017-12-21T06:07:04.137Z,100.00
2017-12-21T06:08:35.316Z,100.00
2017-12-21T06:10:02.564Z,100.00
2017-12-21T06:11:29.757Z,100.00
2017-12-21T06:12:56.972Z,100.00
2017-12-21T06:14:24.034Z,100.00
2017-12-21T06:15:51.162Z,100.00
2017-12-21T06:17:18.405Z,100.00
2017-12-21T06:18:41.646Z,100.00
2017-12-21T06:20:12.774Z,100.00
2017-12-21T06:21:40.022Z,100.00
2017-12-21T06:23:07.304Z,100.00
2017-12-21T06:24:30.587Z,100.00
2017-12-21T06:26:01.897Z,100.00
2017-12-21T06:27:24.967Z,100.00
2017-12-21T06:28:52.224Z,100.00
2017-12-21T06:30:19.381Z,100.00
2017-12-21T06:31:46.774Z,100.00
2017-12-21T06:33:13.863Z,100.00
2017-12-21T06:34:41.116Z,100.00
2017-12-21T06:36:07.948Z,100.00
2017-12-21T06:37:35.009Z,100.00
2017-12-21T06:39:02.310Z,100.00
2017-12-21T06:40:29.613Z,100.00
2017-12-21T06:41:56.839Z,100.00
2017-12-21T06:43:28.248Z,100.00
2017-12-21T06:44:51.461Z,100.00
2017-12-21T06:46:22.733Z,100.00
2017-12-21T06:47:50.058Z,100.00
2017-12-21T06:49:13.392Z,100.00
2017-12-21T06:50:40.717Z,100.00
2017-12-21T06:52:11.975Z,100.00
2017-12-21T06:53:39.098Z,100.00
2017-12-21T06:55:02.550Z,100.00
2017-12-21T06:56:33.828Z,100.00
2017-12-21T06:58:01.044Z,100.00
2017-12-21T06:59:24.455Z,100.00
2017-12-21T07:00:51.704Z,100.00
2017-12-21T07:02:18.938Z,100.00
2017-12-21T07:03:50.310Z,100.00
2017-12-21T07:05:13.660Z,100.00
2017-12-21T07:06:44.749Z,100.00
2017-12-21T07:08:07.954Z,100.00
2017-12-21T07:09:35.008Z,100.00
2017-12-21T07:11:02.380Z,100.00
2017-12-21T07:12:29.620Z,100.00
2017-12-21T07:14:00.949Z,100.00
2017-12-21T07:15:24.294Z,100.00
2017-12-21T07:16:55.457Z,100.00
2017-12-21T07:18:18.895Z,100.00
2017-12-21T07:19:46.129Z,100.00
2017-12-21T07:21:13.540Z,100.00
2017-12-21T07:22:40.660Z,100.00
2017-12-21T07:24:07.905Z,100.00
2017-12-21T07:25:34.932Z,100.00
2017-12-21T07:27:02.110Z,100.00
2017-12-21T07:28:29.227Z,100.00
2017-12-21T07:29:56.572Z,100.00
2017-12-21T07:31:27.789Z,100.00
2017-12-21T07:32:54.969Z,100.00
2017-12-21T07:34:18.401Z,100.00
2017-12-21T07:35:45.659Z,100.00
2017-12-21T07:37:16.988Z,100.00
2017-12-21T07:38:44.148Z,100.00
2017-12-21T07:40:07.205Z,100.00
2017-12-21T07:41:38.328Z,100.00
2017-12-21T07:43:01.606Z,100.00
2017-12-21T07:44:33.094Z,100.00
2017-12-21T07:46:00.227Z,100.00
2017-12-21T07:47:23.613Z,100.00
2017-12-21T07:48:50.960Z,100.00
2017-12-21T07:50:17.776Z,100.00
2017-12-21T07:51:48.988Z,100.00
2017-12-21T07:53:16.331Z,100.00
2017-12-21T07:54:43.566Z,100.00
2017-12-21T07:56:06.787Z,100.00
2017-12-21T07:57:33.792Z,100.00
2017-12-21T07:59:01.258Z,100.00
2017-12-21T08:00:28.479Z,100.00
2017-12-21T08:01:59.789Z,100.00
2017-12-21T08:03:23.119Z,100.00
2017-12-21T08:04:54.324Z,100.00
2017-12-21T08:06:17.682Z,99.92
2017-12-21T08:07:45.032Z,99.94
2017-12-21T08:09:12.265Z,100.00
2017-12-21T08:10:39.623Z,99.99
2017-12-21T08:12:10.811Z,100.00
2017-12-21T08:13:38.059Z,100.00
2017-12-21T08:15:01.356Z,99.90
2017-12-21T08:16:28.641Z,100.00
2017-12-21T08:17:59.844Z,100.00
2017-12-21T08:19:23.347Z,100.00
2017-12-21T08:20:50.505Z,100.00
2017-12-21T08:22:17.770Z,100.00
2017-12-21T08:23:45.169Z,100.00
2017-12-21T08:25:12.336Z,100.00
2017-12-21T08:26:39.508Z,100.00
2017-12-21T08:28:10.797Z,100.00
2017-12-21T08:29:34.246Z,100.00
2017-12-21T08:31:05.445Z,100.00
2017-12-21T08:32:28.708Z,100.00
2017-12-21T08:33:55.781Z,99.86
2017-12-21T08:35:27.021Z,99.75
2017-12-21T08:36:50.453Z,99.87
2017-12-21T08:38:17.871Z,99.72
2017-12-21T08:39:45.032Z,99.64
2017-12-21T08:41:12.364Z,99.48
2017-12-21T08:42:43.643Z,99.21
2017-12-21T08:44:07.023Z,99.27
2017-12-21T08:45:34.444Z,99.47
2017-12-21T08:47:01.635Z,99.34
2017-12-21T08:48:32.942Z,99.28
2017-12-21T08:49:56.141Z,99.19
2017-12-21T08:51:23.481Z,99.02
2017-12-21T08:52:54.684Z,98.98
2017-12-21T08:54:17.840Z,99.27
2017-12-21T08:55:49.039Z,99.18
2017-12-21T08:57:12.191Z,99.26
2017-12-21T08:58:39.421Z,99.26
2017-12-21T09:00:06.547Z,99.09
2017-12-21T09:01:37.808Z,99.13
2017-12-21T09:03:00.957Z,99.26
2017-12-21T09:04:32.387Z,98.88
2017-12-21T09:05:55.562Z,98.89
2017-12-21T09:07:22.873Z,99.01
2017-12-21T09:08:50.248Z,99.17
2017-12-21T09:10:17.509Z,98.99
2017-12-21T09:11:44.592Z,99.12
2017-12-21T09:13:11.862Z,99.10
2017-12-21T09:14:43.207Z,99.02
2017-12-21T09:16:06.369Z,99.21
2017-12-21T09:17:33.673Z,99.07
2017-12-21T09:19:01.136Z,99.06
2017-12-21T09:20:32.257Z,99.23
2017-12-21T09:21:59.617Z,99.23
2017-12-21T09:23:22.814Z,99.00
2017-12-21T09:24:53.947Z,98.99
2017-12-21T09:26:17.107Z,98.85
2017-12-21T09:27:44.502Z,98.89
2017-12-21T09:29:11.756Z,98.99
2017-12-21T09:30:39.209Z,99.01
2017-12-21T09:32:10.493Z,98.82
2017-12-21T09:33:37.685Z,98.73
2017-12-21T09:35:01.034Z,98.97
2017-12-21T09:36:28.195Z,99.08
2017-12-21T09:37:59.476Z,99.03
2017-12-21T09:39:22.684Z,98.96
2017-12-21T09:40:54.069Z,98.99
2017-12-21T09:42:17.498Z,99.20
2017-12-21T09:43:44.371Z,99.07
2017-12-21T09:45:11.659Z,98.98
2017-12-21T09:46:42.959Z,99.12
2017-12-21T09:48:05.988Z,98.96
2017-12-21T09:49:37.195Z,99.05
2017-12-21T09:51:04.280Z,98.90
2017-12-21T09:52:27.600Z,99.00
2017-12-21T09:53:58.809Z,98.70
2017-12-21T09:55:25.935Z,98.53
2017-12-21T09:56:49.481Z,98.74
2017-12-21T09:58:16.717Z,98.46
2017-12-21T09:59:44.113Z,98.66
2017-12-21T10:01:11.604Z,98.62
2017-12-21T10:02:38.837Z,98.67
2017-12-21T10:04:05.830Z,98.57
2017-12-21T10:05:37.089Z,98.71
2017-12-21T10:07:00.451Z,98.82
2017-12-21T10:08:27.684Z,98.77
2017-12-21T10:09:58.921Z,98.74
2017-12-21T10:11:22.210Z,98.71
2017-12-21T10:12:49.389Z,98.72
2017-12-21T10:14:20.634Z,98.67
2017-12-21T10:15:43.920Z,98.71
2017-12-21T10:17:15.176Z,98.65
2017-12-21T10:18:42.226Z,98.38
2017-12-21T10:20:05.571Z,98.63
2017-12-21T10:21:36.775Z,98.41
2017-12-21T10:23:03.921Z,98.62
2017-12-21T10:24:27.118Z,98.63
2017-12-21T10:25:58.278Z,98.65
2017-12-21T10:27:25.643Z,98.65
2017-12-21T10:28:49.043Z,98.65
2017-12-21T10:30:20.352Z,98.37
2017-12-21T10:31:47.717Z,98.50
2017-12-21T10:33:10.840Z,98.33
2017-12-21T10:34:41.919Z,98.39
2017-12-21T10:36:09.120Z,98.00
2017-12-21T10:37:32.316Z,97.99
2017-12-21T10:38:59.466Z,98.04
2017-12-21T10:40:26.685Z,98.18
2017-12-21T10:41:58.047Z,98.03
2017-12-21T10:43:21.437Z,98.30
2017-12-21T10:44:52.661Z,98.23
2017-12-21T10:46:16.036Z,98.08
2017-12-21T10:47:43.321Z,98.08
2017-12-21T10:49:10.518Z,97.91
2017-12-21T10:50:37.785Z,97.88
2017-12-21T10:52:09.106Z,97.79
2017-12-21T10:53:32.379Z,98.06
2017-12-21T10:55:03.685Z,97.66
2017-12-21T10:56:30.939Z,97.65
2017-12-21T10:57:58.361Z,97.92
2017-12-21T10:59:25.701Z,97.69
2017-12-21T11:00:48.978Z,97.72
2017-12-21T11:02:20.292Z,97.90
2017-12-21T11:03:43.589Z,97.99
2017-12-21T11:05:10.888Z,97.98
2017-12-21T11:06:42.147Z,98.00
2017-12-21T11:08:05.276Z,98.21
2017-12-21T11:09:32.412Z,98.06
2017-12-21T11:11:03.780Z,98.14
2017-12-21T11:12:30.986Z,98.25
2017-12-21T11:13:54.294Z,98.00
2017-12-21T11:15:25.635Z,97.92
2017-12-21T11:16:52.894Z,98.03
2017-12-21T11:18:20.164Z,98.01
2017-12-21T11:19:43.525Z,97.72
2017-12-21T11:21:10.930Z,97.75
2017-12-21T11:22:38.317Z,97.75
2017-12-21T11:24:09.256Z,97.63
2017-12-21T11:25:36.491Z,97.32
2017-12-21T11:27:03.897Z,97.48
2017-12-21T11:28:27.152Z,97.49
2017-12-21T11:29:54.578Z,97.37
2017-12-21T11:31:21.973Z,97.60
2017-12-21T11:32:49.025Z,97.61
2017-12-21T11:34:16.417Z,97.50
2017-12-21T11:35:43.820Z,97.53
2017-12-21T11:37:11.171Z,97.55
2017-12-21T11:38:38.524Z,97.36
2017-12-21T11:40:05.864Z,97.42
2017-12-21T11:41:36.931Z,97.38
2017-12-21T11:43:00.198Z,97.22
2017-12-21T11:44:31.358Z,97.27
2017-12-21T11:45:54.473Z,97.04
2017-12-21T11:47:21.767Z,97.26
2017-12-21T11:48:53.146Z,97.06
2017-12-21T11:50:16.330Z,97.02
2017-12-21T11:51:43.665Z,97.23
2017-12-21T11:53:14.922Z,97.28
2017-12-21T11:54:38.119Z,97.02
2017-12-21T11:56:05.301Z,97.08
2017-12-21T11:57:37.516Z,97.06
2017-12-21T11:58:59.764Z,97.14
2017-12-21T12:00:31.117Z,96.84
2017-12-21T12:01:54.592Z,97.34
2017-12-21T12:03:21.930Z,97.13
2017-12-21T12:04:49.214Z,97.01
2017-12-21T12:06:16.484Z,97.06
2017-12-21T12:07:47.681Z,97.10
2017-12-21T12:09:14.939Z,97.03
2017-12-21T12:10:38.281Z,97.18
2017-12-21T12:12:05.506Z,96.68
2017-12-21T12:13:32.821Z,96.55
2017-12-21T12:15:00.362Z,96.76
2017-12-21T12:16:31.688Z,96.69
2017-12-21T12:17:55.086Z,96.75
2017-12-21T12:19:26.408Z,96.74
2017-12-21T12:20:53.602Z,96.92
2017-12-21T12:22:16.920Z,96.88
2017-12-21T12:23:44.232Z,96.85
2017-12-21T12:25:11.368Z,96.68
2017-12-21T12:26:38.616Z,96.69
2017-12-21T12:28:09.901Z,96.61
2017-12-21T12:29:37.411Z,96.34
2017-12-21T12:31:00.541Z,96.60
2017-12-21T12:32:31.996Z,96.74
2017-12-21T12:33:59.334Z,96.71
2017-12-21T12:35:26.488Z,96.68
2017-12-21T12:36:49.667Z,96.73
2017-12-21T12:38:20.735Z,96.97
2017-12-21T12:39:47.948Z,96.89
2017-12-21T12:41:11.277Z,96.93
2017-12-21T12:42:42.518Z,96.98
2017-12-21T12:44:09.846Z,96.81
2017-12-21T12:45:33.041Z,96.68
2017-12-21T12:47:04.366Z,96.92
2017-12-21T12:48:27.873Z,96.78
2017-12-21T12:49:58.988Z,96.58
2017-12-21T12:51:26.448Z,96.56
2017-12-21T12:52:49.845Z,96.58
2017-12-21T12:54:21.052Z,96.60
2017-12-21T12:55:48.376Z,96.73
2017-12-21T12:57:15.736Z,96.59
2017-12-21T12:58:39.002Z,96.72
2017-12-21T13:00:06.134Z,96.67
2017-12-21T13:01:37.316Z,96.48
2017-12-21T13:03:00.721Z,96.54
2017-12-21T13:04:32.120Z,96.49
2017-12-21T13:05:55.552Z,96.50
2017-12-21T13:07:24.498Z,96.09
2017-12-21T13:08:50.221Z,96.18
2017-12-21T13:10:17.462Z,96.36
2017-12-21T13:11:44.578Z,96.42
2017-12-21T13:13:11.737Z,96.66
2017-12-21T13:14:39.057Z,96.64
2017-12-21T13:16:10.238Z,96.61
2017-12-21T13:17:33.507Z,96.67
2017-12-21T13:19:04.841Z,96.69
2017-12-21T13:20:28.088Z,96.55
2017-12-21T13:21:55.413Z,96.35
2017-12-21T13:23:22.848Z,96.32
2017-12-21T13:24:50.066Z,96.69
2017-12-21T13:26:21.332Z,96.63
2017-12-21T13:27:48.742Z,96.71
2017-12-21T13:29:16.079Z,96.81
2017-12-21T13:30:43.328Z,96.70
2017-12-21T13:32:10.539Z,96.81
2017-12-21T13:33:37.735Z,96.78
2017-12-21T13:35:01.018Z,96.95
2017-12-21T13:36:28.323Z,96.89
2017-12-21T13:37:55.719Z,97.01
2017-12-21T13:39:22.976Z,97.00
2017-12-21T13:40:50.297Z,97.06
2017-12-21T13:42:17.509Z,96.91
2017-12-21T13:43:48.827Z,97.03
2017-12-21T13:45:12.065Z,97.04
2017-12-21T13:46:43.339Z,96.97
2017-12-21T13:48:10.678Z,96.92
2017-12-21T13:49:38.036Z,96.92
2017-12-21T13:51:05.249Z,96.76
2017-12-21T13:52:28.521Z,96.68
2017-12-21T13:53:59.709Z,96.55
2017-12-21T13:55:22.832Z,96.90
2017-12-21T13:56:54.007Z,96.77
2017-12-21T13:58:17.501Z,96.69
2017-12-21T13:59:48.725Z,96.72
2017-12-21T14:01:15.793Z,96.78
2017-12-21T14:02:43.148Z,96.58
2017-12-21T14:04:10.535Z,96.53
2017-12-21T14:05:33.530Z,96.08
2017-12-21T14:07:04.979Z,96.02
2017-12-21T14:08:28.238Z,96.18
2017-12-21T14:09:55.427Z,96.03
2017-12-21T14:11:22.801Z,95.96
2017-12-21T14:12:50.232Z,95.86
2017-12-21T14:14:21.283Z,96.12
2017-12-21T14:15:44.764Z,96.02
2017-12-21T14:17:11.990Z,96.12
2017-12-21T14:18:39.232Z,95.92
2017-12-21T14:20:06.506Z,95.57
2017-12-21T14:21:37.817Z,95.48
2017-12-21T14:23:05.038Z,95.05
2017-12-21T14:24:32.495Z,94.73
2017-12-21T14:25:55.657Z,94.83
2017-12-21T14:27:22.770Z,94.92
2017-12-21T14:28:53.940Z,94.91
2017-12-21T14:30:20.996Z,94.85
2017-12-21T14:31:44.471Z,94.85
2017-12-21T14:33:11.714Z,94.73
2017-12-21T14:34:39.091Z,94.62
2017-12-21T14:36:06.430Z,94.61
2017-12-21T14:37:33.919Z,94.69
2017-12-21T14:39:05.218Z,94.62
2017-12-21T14:40:28.650Z,94.61
2017-12-21T14:41:56.082Z,94.33
2017-12-21T14:43:23.141Z,94.30
2017-12-21T14:44:54.415Z,94.41
2017-12-21T14:46:17.734Z,94.76
2017-12-21T14:47:45.100Z,94.76
2017-12-21T14:49:16.251Z,94.77
2017-12-21T14:50:39.540Z,94.60
2017-12-21T14:52:10.686Z,94.31
2017-12-21T14:53:34.024Z,94.44
2017-12-21T14:55:05.407Z,94.58
2017-12-21T14:56:28.582Z,94.67
2017-12-21T14:57:55.771Z,94.44
2017-12-21T14:59:27.196Z,94.47
2017-12-21T15:00:50.576Z,94.63
2017-12-21T15:02:17.843Z,94.50
2017-12-21T15:03:45.094Z,94.41
2017-12-21T15:05:12.391Z,94.39
2017-12-21T15:06:39.697Z,94.60
2017-12-21T15:08:11.027Z,94.75
2017-12-21T15:09:38.424Z,94.50
2017-12-21T15:11:01.705Z,94.83
2017-12-21T15:12:28.971Z,94.74
2017-12-21T15:13:56.238Z,94.76
2017-12-21T15:15:23.524Z,94.39
2017-12-21T15:16:50.709Z,94.51
2017-12-21T15:18:17.920Z,94.31
2017-12-21T15:19:45.051Z,94.45
2017-12-21T15:21:12.098Z,94.34
2017-12-21T15:22:43.422Z,94.43
2017-12-21T15:24:06.609Z,94.55
2017-12-21T15:25:37.731Z,94.35
2017-12-21T15:27:04.799Z,94.36
2017-12-21T15:28:28.235Z,94.27
2017-12-21T15:29:55.595Z,94.23
2017-12-21T15:31:23.054Z,94.17
2017-12-21T15:32:50.260Z,94.11
2017-12-21T15:34:17.531Z,94.46
2017-12-21T15:35:44.998Z,94.64
2017-12-21T15:37:12.243Z,94.46
2017-12-21T15:38:43.558Z,94.52
2017-12-21T15:40:07.036Z,94.69
2017-12-21T15:41:38.328Z,94.66
2017-12-21T15:43:01.380Z,94.62
2017-12-21T15:44:32.632Z,94.51
2017-12-21T15:45:55.746Z,94.10
2017-12-21T15:47:23.013Z,94.53
2017-12-21T15:48:54.411Z,94.27
2017-12-21T15:50:21.584Z,94.22
2017-12-21T15:51:44.868Z,94.42
2017-12-21T15:53:16.104Z,94.35
2017-12-21T15:54:43.195Z,94.30
2017-12-21T15:56:06.438Z,94.13
2017-12-21T15:57:33.657Z,93.89
2017-12-21T15:59:00.923Z,94.12
2017-12-21T16:00:27.896Z,94.12
2017-12-21T16:01:55.235Z,94.11
2017-12-21T16:03:22.651Z,94.25
2017-12-21T16:04:53.905Z,94.03
2017-12-21T16:06:17.101Z,93.88
2017-12-21T16:07:44.449Z,93.83
2017-12-21T16:09:11.776Z,94.03
2017-12-21T16:10:42.980Z,94.06
2017-12-21T16:12:06.184Z,93.97
2017-12-21T16:13:33.398Z,93.52
2017-12-21T16:15:00.620Z,94.08
2017-12-21T16:16:27.981Z,93.96
2017-12-21T16:17:55.267Z,94.07
2017-12-21T16:19:22.411Z,94.62
2017-12-21T16:20:49.654Z,94.62
2017-12-21T16:22:16.939Z,95.00
2017-12-21T16:23:44.207Z,94.93
2017-12-21T16:25:11.540Z,94.83
2017-12-21T16:26:42.694Z,95.24
2017-12-21T16:28:09.917Z,95.22
2017-12-21T16:29:37.023Z,95.32
2017-12-21T16:31:00.239Z,95.26
2017-12-21T16:32:27.802Z,95.24
2017-12-21T16:33:55.049Z,95.06
2017-12-21T16:35:22.317Z,94.80
2017-12-21T16:36:53.414Z,94.85
2017-12-21T16:38:16.612Z,95.20
2017-12-21T16:39:43.869Z,95.31
2017-12-21T16:41:11.113Z,95.42
2017-12-21T16:42:38.365Z,95.50
2017-12-21T16:44:09.481Z,95.35
2017-12-21T16:45:32.795Z,95.33
2017-12-21T16:47:03.951Z,95.62
2017-12-21T16:48:27.098Z,95.49
2017-12-21T16:49:54.438Z,95.67
2017-12-21T16:51:21.656Z,95.56
2017-12-21T16:52:53.028Z,95.75
2017-12-21T16:54:16.160Z,95.77
2017-12-21T16:55:47.292Z,95.67
2017-12-21T16:57:14.466Z,95.41
2017-12-21T16:58:41.852Z,95.39
2017-12-21T17:00:05.055Z,94.97
2017-12-21T17:01:32.413Z,95.22
2017-12-21T17:03:03.534Z,95.14
2017-12-21T17:04:26.882Z,95.06
2017-12-21T17:05:54.161Z,94.60
2017-12-21T17:07:21.376Z,94.95
2017-12-21T17:08:48.762Z,95.07
2017-12-21T17:10:19.912Z,95.53
2017-12-21T17:11:43.190Z,95.81
2017-12-21T17:13:10.340Z,95.86
2017-12-21T17:14:37.610Z,95.38
2017-12-21T17:16:04.738Z,95.76
2017-12-21T17:17:31.947Z,95.60
2017-12-21T17:18:59.247Z,95.59
2017-12-21T17:20:26.633Z,95.81
2017-12-21T17:21:53.802Z,95.39
2017-12-21T17:23:21.124Z,95.63
2017-12-21T17:24:52.499Z,95.67
2017-12-21T17:26:19.604Z,96.02
2017-12-21T17:27:43.036Z,96.06
2017-12-21T17:29:14.280Z,96.27
2017-12-21T17:30:41.335Z,96.21
2017-12-21T17:32:08.326Z,96.25
2017-12-21T17:33:31.815Z,96.40
2017-12-21T17:34:59.045Z,96.32
2017-12-21T17:36:30.451Z,96.09
2017-12-21T17:37:57.820Z,96.34
2017-12-21T17:39:20.896Z,96.40
2017-12-21T17:40:52.273Z,96.31
2017-12-21T17:42:15.524Z,96.18
2017-12-21T17:43:46.796Z,96.17
2017-12-21T17:45:10.140Z,95.99
2017-12-21T17:46:37.251Z,96.37
2017-12-21T17:48:04.627Z,96.50
2017-12-21T17:49:31.776Z,96.45
2017-12-21T17:50:58.965Z,96.29
2017-12-21T17:52:30.362Z,96.18
2017-12-21T17:53:57.573Z,96.06
2017-12-21T17:55:24.700Z,95.65
2017-12-21T17:56:48.079Z,95.90
2017-12-21T17:58:15.404Z,96.12
2017-12-21T17:59:46.599Z,96.50
2017-12-21T18:01:09.814Z,96.59
2017-12-21T18:02:36.834Z,96.75
2017-12-21T18:04:08.119Z,97.14
2017-12-21T18:05:31.197Z,97.05
2017-12-21T18:06:58.502Z,97.30
2017-12-21T18:08:25.720Z,97.29
2017-12-21T18:09:53.129Z,97.34
2017-12-21T18:11:24.402Z,97.54
2017-12-21T18:12:47.652Z,97.47
2017-12-21T18:14:14.975Z,97.44
2017-12-21T18:15:42.191Z,97.45
2017-12-21T18:17:09.418Z,97.37
2017-12-21T18:18:40.385Z,97.21
2017-12-21T18:20:07.915Z,96.94
2017-12-21T18:21:35.235Z,96.80
2017-12-21T18:23:02.546Z,96.48
2017-12-21T18:24:25.958Z,96.68
2017-12-21T18:25:53.339Z,96.73
2017-12-21T18:27:20.764Z,96.83